sensor_id;sensor_type;location;lat;lon;timestamp;P1;durP1;ratioP1;P2;durP2;ratioP2
18933;SDS011;9599;53.706;10.384;2022-10-16T00:00:58;11.20;;;6.30;;
18933;SDS011;9599;53.706;10.384;2022-10-16T00:03:31;8.87;;;6.10;;
18933;SDS011;9599;53.706;10.384;2022-10-16T00:05:59;8.53;;;6.43;;
18933;SDS011;9599;53.706;10.384;2022-10-16T00:08:28;9.37;;;6.30;;
18933;SDS011;9599;53.706;10.384;2022-10-16T00:11:00;8.80;;;6.20;;
18933;SDS011;9599;53.706;10.384;2022-10-16T00:13:31;9.63;;;5.60;;
18933;SDS011;9599;53.706;10.384;2022-10-16T00:16:00;8.90;;;6.60;;
18933;SDS011;9599;53.706;10.384;2022-10-16T00:18:29;8.90;;;6.20;;
18933;SDS011;9599;53.706;10.384;2022-10-16T00:21:01;11.90;;;6.37;;
18933;SDS011;9599;53.706;10.384;2022-10-16T00:23:30;8.80;;;6.37;;
18933;SDS011;9599;53.706;10.384;2022-10-16T00:25:58;8.40;;;6.30;;
18933;SDS011;9599;53.706;10.384;2022-10-16T00:28:27;9.47;;;6.87;;
18933;SDS011;9599;53.706;10.384;2022-10-16T00:30:56;8.80;;;6.23;;
18933;SDS011;9599;53.706;10.384;2022-10-16T00:33:25;10.30;;;6.70;;
18933;SDS011;9599;53.706;10.384;2022-10-16T00:35:52;9.57;;;6.73;;
18933;SDS011;9599;53.706;10.384;2022-10-16T00:38:20;9.67;;;6.50;;
18933;SDS011;9599;53.706;10.384;2022-10-16T00:40:48;11.17;;;7.07;;
18933;SDS011;9599;53.706;10.384;2022-10-16T00:46:02;10.07;;;7.03;;
18933;SDS011;9599;53.706;10.384;2022-10-16T00:48:31;10.70;;;7.17;;
18933;SDS011;9599;53.706;10.384;2022-10-16T00:50:59;9.10;;;6.40;;
18933;SDS011;9599;53.706;10.384;2022-10-16T00:53:27;10.20;;;7.20;;
18933;SDS011;9599;53.706;10.384;2022-10-16T00:55:55;11.67;;;6.80;;
18933;SDS011;9599;53.706;10.384;2022-10-16T00:58:23;9.63;;;6.43;;
18933;SDS011;9599;53.706;10.384;2022-10-16T01:00:51;9.73;;;6.40;;
18933;SDS011;9599;53.706;10.384;2022-10-16T01:03:25;8.73;;;6.47;;
18933;SDS011;9599;53.706;10.384;2022-10-16T01:05:58;8.83;;;6.30;;
18933;SDS011;9599;53.706;10.384;2022-10-16T01:08:45;7.93;;;5.80;;
18933;SDS011;9599;53.706;10.384;2022-10-16T01:11:27;9.23;;;5.80;;
18933;SDS011;9599;53.706;10.384;2022-10-16T01:14:01;8.53;;;5.90;;
18933;SDS011;9599;53.706;10.384;2022-10-16T01:16:34;7.13;;;5.10;;
18933;SDS011;9599;53.706;10.384;2022-10-16T01:19:11;7.87;;;4.90;;
18933;SDS011;9599;53.706;10.384;2022-10-16T01:21:44;7.93;;;5.00;;
18933;SDS011;9599;53.706;10.384;2022-10-16T01:24:17;6.40;;;5.10;;
18933;SDS011;9599;53.706;10.384;2022-10-16T01:27:11;6.90;;;5.10;;
18933;SDS011;9599;53.706;10.384;2022-10-16T01:29:42;6.90;;;5.20;;
18933;SDS011;9599;53.706;10.384;2022-10-16T01:32:16;7.47;;;4.97;;
18933;SDS011;9599;53.706;10.384;2022-10-16T01:34:49;6.63;;;4.97;;
18933;SDS011;9599;53.706;10.384;2022-10-16T01:37:22;5.83;;;4.73;;
18933;SDS011;9599;53.706;10.384;2022-10-16T01:39:59;6.87;;;4.43;;
18933;SDS011;9599;53.706;10.384;2022-10-16T01:42:32;6.23;;;4.57;;
18933;SDS011;9599;53.706;10.384;2022-10-16T01:45:04;7.30;;;4.80;;
18933;SDS011;9599;53.706;10.384;2022-10-16T01:47:34;7.47;;;5.00;;
18933;SDS011;9599;53.706;10.384;2022-10-16T01:50:03;6.07;;;4.63;;
18933;SDS011;9599;53.706;10.384;2022-10-16T01:52:34;7.07;;;4.77;;
18933;SDS011;9599;53.706;10.384;2022-10-16T01:55:06;6.73;;;4.80;;
18933;SDS011;9599;53.706;10.384;2022-10-16T01:57:39;8.10;;;4.50;;
18933;SDS011;9599;53.706;10.384;2022-10-16T02:00:12;8.67;;;4.80;;
18933;SDS011;9599;53.706;10.384;2022-10-16T02:02:45;6.33;;;4.60;;
18933;SDS011;9599;53.706;10.384;2022-10-16T02:05:18;5.13;;;4.60;;
18933;SDS011;9599;53.706;10.384;2022-10-16T02:07:50;7.17;;;4.53;;
18933;SDS011;9599;53.706;10.384;2022-10-16T02:10:18;5.63;;;4.03;;
18933;SDS011;9599;53.706;10.384;2022-10-16T02:12:49;4.90;;;4.43;;
18933;SDS011;9599;53.706;10.384;2022-10-16T02:15:22;4.93;;;4.20;;
18933;SDS011;9599;53.706;10.384;2022-10-16T02:17:50;5.37;;;3.87;;
18933;SDS011;9599;53.706;10.384;2022-10-16T02:20:18;6.53;;;4.10;;
18933;SDS011;9599;53.706;10.384;2022-10-16T02:22:49;6.47;;;3.80;;
18933;SDS011;9599;53.706;10.384;2022-10-16T02:25:20;8.93;;;4.63;;
18933;SDS011;9599;53.706;10.384;2022-10-16T02:27:54;5.07;;;3.50;;
18933;SDS011;9599;53.706;10.384;2022-10-16T02:30:27;6.00;;;3.77;;
18933;SDS011;9599;53.706;10.384;2022-10-16T02:32:59;5.13;;;3.53;;
18933;SDS011;9599;53.706;10.384;2022-10-16T02:35:29;3.80;;;3.40;;
18933;SDS011;9599;53.706;10.384;2022-10-16T02:37:58;6.03;;;3.40;;
18933;SDS011;9599;53.706;10.384;2022-10-16T02:40:26;4.30;;;3.43;;
18933;SDS011;9599;53.706;10.384;2022-10-16T02:42:56;5.23;;;3.37;;
18933;SDS011;9599;53.706;10.384;2022-10-16T02:45:24;5.83;;;3.67;;
18933;SDS011;9599;53.706;10.384;2022-10-16T02:47:53;7.17;;;4.10;;
18933;SDS011;9599;53.706;10.384;2022-10-16T02:50:21;6.83;;;3.67;;
18933;SDS011;9599;53.706;10.384;2022-10-16T02:52:50;7.30;;;3.80;;
18933;SDS011;9599;53.706;10.384;2022-10-16T02:55:18;6.13;;;3.57;;
18933;SDS011;9599;53.706;10.384;2022-10-16T02:57:46;4.47;;;3.40;;
18933;SDS011;9599;53.706;10.384;2022-10-16T03:00:16;6.50;;;3.37;;
18933;SDS011;9599;53.706;10.384;2022-10-16T03:02:44;5.17;;;3.30;;
18933;SDS011;9599;53.706;10.384;2022-10-16T03:05:13;5.37;;;3.13;;
18933;SDS011;9599;53.706;10.384;2022-10-16T03:07:41;6.43;;;3.00;;
18933;SDS011;9599;53.706;10.384;2022-10-16T03:10:09;5.33;;;3.07;;
18933;SDS011;9599;53.706;10.384;2022-10-16T03:12:37;4.80;;;2.70;;
18933;SDS011;9599;53.706;10.384;2022-10-16T03:15:05;3.97;;;2.60;;
18933;SDS011;9599;53.706;10.384;2022-10-16T03:17:35;5.77;;;2.80;;
18933;SDS011;9599;53.706;10.384;2022-10-16T03:20:03;3.07;;;2.33;;
18933;SDS011;9599;53.706;10.384;2022-10-16T03:22:32;3.30;;;2.60;;
18933;SDS011;9599;53.706;10.384;2022-10-16T03:24:59;4.90;;;2.30;;
18933;SDS011;9599;53.706;10.384;2022-10-16T03:27:27;4.77;;;2.33;;
18933;SDS011;9599;53.706;10.384;2022-10-16T03:29:55;5.80;;;2.53;;
18933;SDS011;9599;53.706;10.384;2022-10-16T03:32:23;3.50;;;2.47;;
18933;SDS011;9599;53.706;10.384;2022-10-16T03:34:53;3.53;;;2.53;;
18933;SDS011;9599;53.706;10.384;2022-10-16T03:37:22;5.73;;;2.60;;
18933;SDS011;9599;53.706;10.384;2022-10-16T03:39:51;5.40;;;2.60;;
18933;SDS011;9599;53.706;10.384;2022-10-16T03:42:19;4.30;;;2.23;;
18933;SDS011;9599;53.706;10.384;2022-10-16T03:44:47;4.10;;;2.33;;
18933;SDS011;9599;53.706;10.384;2022-10-16T03:47:14;5.10;;;2.30;;
18933;SDS011;9599;53.706;10.384;2022-10-16T03:49:47;5.67;;;2.50;;
18933;SDS011;9599;53.706;10.384;2022-10-16T03:52:16;5.57;;;2.60;;
18933;SDS011;9599;53.706;10.384;2022-10-16T03:54:49;4.53;;;2.20;;
18933;SDS011;9599;53.706;10.384;2022-10-16T03:57:17;3.20;;;2.20;;
18933;SDS011;9599;53.706;10.384;2022-10-16T03:59:44;4.90;;;2.37;;
18933;SDS011;9599;53.706;10.384;2022-10-16T04:02:12;3.07;;;2.30;;
18933;SDS011;9599;53.706;10.384;2022-10-16T04:04:40;3.10;;;2.30;;
18933;SDS011;9599;53.706;10.384;2022-10-16T04:07:08;4.17;;;2.37;;
18933;SDS011;9599;53.706;10.384;2022-10-16T04:09:37;5.13;;;2.77;;
18933;SDS011;9599;53.706;10.384;2022-10-16T04:12:05;3.63;;;2.13;;
18933;SDS011;9599;53.706;10.384;2022-10-16T04:14:33;3.90;;;2.40;;
18933;SDS011;9599;53.706;10.384;2022-10-16T04:17:01;3.90;;;2.53;;
18933;SDS011;9599;53.706;10.384;2022-10-16T04:19:29;3.30;;;2.37;;
18933;SDS011;9599;53.706;10.384;2022-10-16T04:21:57;4.00;;;2.03;;
18933;SDS011;9599;53.706;10.384;2022-10-16T04:24:25;3.57;;;2.30;;
18933;SDS011;9599;53.706;10.384;2022-10-16T04:26:54;2.40;;;2.00;;
18933;SDS011;9599;53.706;10.384;2022-10-16T04:29:22;4.17;;;2.20;;
18933;SDS011;9599;53.706;10.384;2022-10-16T04:31:50;3.83;;;2.00;;
18933;SDS011;9599;53.706;10.384;2022-10-16T04:34:17;3.67;;;2.27;;
18933;SDS011;9599;53.706;10.384;2022-10-16T04:36:46;3.27;;;1.90;;
18933;SDS011;9599;53.706;10.384;2022-10-16T04:39:15;3.77;;;2.30;;
18933;SDS011;9599;53.706;10.384;2022-10-16T04:41:43;4.20;;;2.30;;
18933;SDS011;9599;53.706;10.384;2022-10-16T04:44:12;4.80;;;2.20;;
18933;SDS011;9599;53.706;10.384;2022-10-16T04:46:40;4.10;;;2.53;;
18933;SDS011;9599;53.706;10.384;2022-10-16T04:49:08;3.97;;;2.30;;
18933;SDS011;9599;53.706;10.384;2022-10-16T04:51:36;4.37;;;2.07;;
18933;SDS011;9599;53.706;10.384;2022-10-16T04:54:04;5.07;;;2.37;;
18933;SDS011;9599;53.706;10.384;2022-10-16T04:56:31;3.53;;;2.00;;
18933;SDS011;9599;53.706;10.384;2022-10-16T04:59:06;3.57;;;1.97;;
18933;SDS011;9599;53.706;10.384;2022-10-16T05:01:35;7.30;;;2.50;;
18933;SDS011;9599;53.706;10.384;2022-10-16T05:04:03;4.63;;;2.07;;
18933;SDS011;9599;53.706;10.384;2022-10-16T05:06:31;3.77;;;2.50;;
18933;SDS011;9599;53.706;10.384;2022-10-16T05:08:58;4.80;;;2.20;;
18933;SDS011;9599;53.706;10.384;2022-10-16T05:11:26;3.67;;;2.27;;
18933;SDS011;9599;53.706;10.384;2022-10-16T05:13:54;3.30;;;2.37;;
18933;SDS011;9599;53.706;10.384;2022-10-16T05:16:22;3.97;;;2.17;;
18933;SDS011;9599;53.706;10.384;2022-10-16T05:18:52;4.70;;;2.30;;
18933;SDS011;9599;53.706;10.384;2022-10-16T05:21:35;3.13;;;2.40;;
18933;SDS011;9599;53.706;10.384;2022-10-16T05:24:03;3.20;;;2.30;;
18933;SDS011;9599;53.706;10.384;2022-10-16T05:26:31;3.90;;;2.20;;
18933;SDS011;9599;53.706;10.384;2022-10-16T05:28:59;4.80;;;2.40;;
18933;SDS011;9599;53.706;10.384;2022-10-16T05:31:27;4.73;;;2.40;;
18933;SDS011;9599;53.706;10.384;2022-10-16T05:33:59;4.87;;;2.60;;
18933;SDS011;9599;53.706;10.384;2022-10-16T05:36:27;2.43;;;2.23;;
18933;SDS011;9599;53.706;10.384;2022-10-16T05:38:55;3.80;;;2.63;;
18933;SDS011;9599;53.706;10.384;2022-10-16T05:41:23;3.00;;;2.40;;
18933;SDS011;9599;53.706;10.384;2022-10-16T05:43:52;6.20;;;2.70;;
18933;SDS011;9599;53.706;10.384;2022-10-16T05:46:20;4.57;;;2.40;;
18933;SDS011;9599;53.706;10.384;2022-10-16T05:48:51;5.07;;;2.60;;
18933;SDS011;9599;53.706;10.384;2022-10-16T05:51:20;4.20;;;2.60;;
18933;SDS011;9599;53.706;10.384;2022-10-16T05:53:48;5.93;;;2.60;;
18933;SDS011;9599;53.706;10.384;2022-10-16T05:56:16;5.50;;;2.70;;
18933;SDS011;9599;53.706;10.384;2022-10-16T05:58:44;5.03;;;2.80;;
18933;SDS011;9599;53.706;10.384;2022-10-16T06:01:12;4.87;;;2.53;;
18933;SDS011;9599;53.706;10.384;2022-10-16T06:03:42;3.87;;;2.60;;
18933;SDS011;9599;53.706;10.384;2022-10-16T06:06:10;3.30;;;2.47;;
18933;SDS011;9599;53.706;10.384;2022-10-16T06:08:41;5.63;;;2.53;;
18933;SDS011;9599;53.706;10.384;2022-10-16T06:11:11;3.83;;;2.40;;
18933;SDS011;9599;53.706;10.384;2022-10-16T06:13:41;3.83;;;2.67;;
18933;SDS011;9599;53.706;10.384;2022-10-16T06:16:09;4.33;;;2.37;;
18933;SDS011;9599;53.706;10.384;2022-10-16T06:18:37;6.87;;;2.73;;
18933;SDS011;9599;53.706;10.384;2022-10-16T06:21:07;5.90;;;2.50;;
18933;SDS011;9599;53.706;10.384;2022-10-16T06:23:36;3.70;;;2.60;;
18933;SDS011;9599;53.706;10.384;2022-10-16T06:26:07;2.93;;;2.40;;
18933;SDS011;9599;53.706;10.384;2022-10-16T06:28:35;5.07;;;2.40;;
18933;SDS011;9599;53.706;10.384;2022-10-16T06:31:04;3.97;;;2.53;;
18933;SDS011;9599;53.706;10.384;2022-10-16T06:33:34;4.23;;;2.37;;
18933;SDS011;9599;53.706;10.384;2022-10-16T06:36:02;4.00;;;2.20;;
18933;SDS011;9599;53.706;10.384;2022-10-16T06:38:30;5.60;;;2.60;;
18933;SDS011;9599;53.706;10.384;2022-10-16T06:40:59;3.87;;;2.50;;
18933;SDS011;9599;53.706;10.384;2022-10-16T06:43:29;5.93;;;2.17;;
18933;SDS011;9599;53.706;10.384;2022-10-16T06:45:59;3.90;;;2.30;;
18933;SDS011;9599;53.706;10.384;2022-10-16T06:48:27;4.67;;;2.40;;
18933;SDS011;9599;53.706;10.384;2022-10-16T06:50:56;3.60;;;2.60;;
18933;SDS011;9599;53.706;10.384;2022-10-16T06:53:25;6.43;;;2.47;;
18933;SDS011;9599;53.706;10.384;2022-10-16T06:56:06;3.13;;;2.20;;
18933;SDS011;9599;53.706;10.384;2022-10-16T06:58:36;3.67;;;2.13;;
18933;SDS011;9599;53.706;10.384;2022-10-16T07:01:06;3.40;;;2.37;;
18933;SDS011;9599;53.706;10.384;2022-10-16T07:03:35;4.83;;;2.90;;
18933;SDS011;9599;53.706;10.384;2022-10-16T07:06:04;5.37;;;2.60;;
18933;SDS011;9599;53.706;10.384;2022-10-16T07:08:34;4.30;;;2.70;;
18933;SDS011;9599;53.706;10.384;2022-10-16T07:11:03;4.03;;;2.63;;
18933;SDS011;9599;53.706;10.384;2022-10-16T07:13:32;3.57;;;2.73;;
18933;SDS011;9599;53.706;10.384;2022-10-16T07:16:05;4.30;;;2.90;;
18933;SDS011;9599;53.706;10.384;2022-10-16T07:18:33;4.53;;;2.90;;
18933;SDS011;9599;53.706;10.384;2022-10-16T07:21:03;7.33;;;3.00;;
18933;SDS011;9599;53.706;10.384;2022-10-16T07:23:31;5.30;;;3.20;;
18933;SDS011;9599;53.706;10.384;2022-10-16T07:26:00;6.27;;;2.93;;
18933;SDS011;9599;53.706;10.384;2022-10-16T07:28:28;7.43;;;3.17;;
18933;SDS011;9599;53.706;10.384;2022-10-16T07:30:59;4.77;;;3.30;;
18933;SDS011;9599;53.706;10.384;2022-10-16T07:33:29;6.33;;;3.47;;
18933;SDS011;9599;53.706;10.384;2022-10-16T07:35:57;5.97;;;3.50;;
18933;SDS011;9599;53.706;10.384;2022-10-16T07:38:25;5.30;;;3.30;;
18933;SDS011;9599;53.706;10.384;2022-10-16T07:40:57;6.23;;;2.97;;
18933;SDS011;9599;53.706;10.384;2022-10-16T07:43:25;3.83;;;2.90;;
18933;SDS011;9599;53.706;10.384;2022-10-16T07:45:54;6.43;;;3.17;;
18933;SDS011;9599;53.706;10.384;2022-10-16T07:48:27;6.63;;;3.10;;
18933;SDS011;9599;53.706;10.384;2022-10-16T07:50:58;5.53;;;2.83;;
18933;SDS011;9599;53.706;10.384;2022-10-16T07:53:26;4.40;;;3.33;;
18933;SDS011;9599;53.706;10.384;2022-10-16T07:55:56;6.83;;;3.50;;
18933;SDS011;9599;53.706;10.384;2022-10-16T07:58:25;4.77;;;3.60;;
18933;SDS011;9599;53.706;10.384;2022-10-16T08:00:54;6.97;;;3.50;;
18933;SDS011;9599;53.706;10.384;2022-10-16T08:03:22;5.20;;;3.10;;
18933;SDS011;9599;53.706;10.384;2022-10-16T08:05:50;5.43;;;3.20;;
18933;SDS011;9599;53.706;10.384;2022-10-16T08:08:20;4.97;;;3.13;;
18933;SDS011;9599;53.706;10.384;2022-10-16T08:10:47;6.30;;;3.43;;
18933;SDS011;9599;53.706;10.384;2022-10-16T08:13:15;6.90;;;3.60;;
18933;SDS011;9599;53.706;10.384;2022-10-16T08:15:44;5.13;;;3.57;;
18933;SDS011;9599;53.706;10.384;2022-10-16T08:18:13;4.93;;;3.27;;
18933;SDS011;9599;53.706;10.384;2022-10-16T08:20:42;4.80;;;3.10;;
18933;SDS011;9599;53.706;10.384;2022-10-16T08:23:10;5.50;;;3.60;;
18933;SDS011;9599;53.706;10.384;2022-10-16T08:25:41;4.13;;;3.73;;
18933;SDS011;9599;53.706;10.384;2022-10-16T08:28:09;4.90;;;3.83;;
18933;SDS011;9599;53.706;10.384;2022-10-16T08:30:38;6.37;;;3.83;;
18933;SDS011;9599;53.706;10.384;2022-10-16T08:33:06;6.50;;;3.60;;
18933;SDS011;9599;53.706;10.384;2022-10-16T08:35:34;5.77;;;4.27;;
18933;SDS011;9599;53.706;10.384;2022-10-16T08:38:02;6.47;;;3.90;;
18933;SDS011;9599;53.706;10.384;2022-10-16T08:40:31;4.37;;;3.10;;
18933;SDS011;9599;53.706;10.384;2022-10-16T08:43:19;5.63;;;3.53;;
18933;SDS011;9599;53.706;10.384;2022-10-16T08:46:07;4.20;;;3.10;;
18933;SDS011;9599;53.706;10.384;2022-10-16T08:48:43;3.40;;;2.97;;
18933;SDS011;9599;53.706;10.384;2022-10-16T08:51:16;4.53;;;3.00;;
18933;SDS011;9599;53.706;10.384;2022-10-16T08:53:49;4.27;;;2.83;;
18933;SDS011;9599;53.706;10.384;2022-10-16T08:56:20;5.20;;;2.70;;
18933;SDS011;9599;53.706;10.384;2022-10-16T08:58:49;5.00;;;2.80;;
18933;SDS011;9599;53.706;10.384;2022-10-16T09:01:25;4.20;;;2.80;;
18933;SDS011;9599;53.706;10.384;2022-10-16T09:04:08;3.27;;;2.50;;
18933;SDS011;9599;53.706;10.384;2022-10-16T09:07:00;2.73;;;2.23;;
18933;SDS011;9599;53.706;10.384;2022-10-16T09:09:41;3.37;;;2.40;;
18933;SDS011;9599;53.706;10.384;2022-10-16T09:12:23;3.07;;;2.20;;
18933;SDS011;9599;53.706;10.384;2022-10-16T09:15:01;2.60;;;2.17;;
18933;SDS011;9599;53.706;10.384;2022-10-16T09:17:41;3.17;;;2.07;;
18933;SDS011;9599;53.706;10.384;2022-10-16T09:20:19;3.50;;;2.20;;
18933;SDS011;9599;53.706;10.384;2022-10-16T09:22:55;2.73;;;2.20;;
18933;SDS011;9599;53.706;10.384;2022-10-16T09:25:43;2.60;;;2.30;;
18933;SDS011;9599;53.706;10.384;2022-10-16T09:28:13;2.40;;;2.20;;
18933;SDS011;9599;53.706;10.384;2022-10-16T09:30:44;4.13;;;2.40;;
18933;SDS011;9599;53.706;10.384;2022-10-16T09:33:12;3.83;;;2.30;;
18933;SDS011;9599;53.706;10.384;2022-10-16T09:35:41;4.77;;;2.30;;
18933;SDS011;9599;53.706;10.384;2022-10-16T09:38:20;3.00;;;1.90;;
18933;SDS011;9599;53.706;10.384;2022-10-16T09:40:49;3.70;;;2.20;;
18933;SDS011;9599;53.706;10.384;2022-10-16T09:43:30;2.57;;;1.93;;
18933;SDS011;9599;53.706;10.384;2022-10-16T09:46:05;4.93;;;1.93;;
18933;SDS011;9599;53.706;10.384;2022-10-16T09:48:36;1.80;;;1.50;;
18933;SDS011;9599;53.706;10.384;2022-10-16T09:51:13;2.30;;;1.80;;
18933;SDS011;9599;53.706;10.384;2022-10-16T09:53:46;1.70;;;1.40;;
18933;SDS011;9599;53.706;10.384;2022-10-16T09:56:21;4.73;;;1.70;;
18933;SDS011;9599;53.706;10.384;2022-10-16T09:58:50;3.77;;;1.57;;
18933;SDS011;9599;53.706;10.384;2022-10-16T10:01:20;2.53;;;1.53;;
18933;SDS011;9599;53.706;10.384;2022-10-16T10:03:55;3.63;;;1.60;;
18933;SDS011;9599;53.706;10.384;2022-10-16T10:06:28;2.13;;;1.47;;
18933;SDS011;9599;53.706;10.384;2022-10-16T10:08:59;2.07;;;1.40;;
18933;SDS011;9599;53.706;10.384;2022-10-16T10:11:37;2.30;;;1.70;;
18933;SDS011;9599;53.706;10.384;2022-10-16T10:14:18;4.00;;;1.70;;
18933;SDS011;9599;53.706;10.384;2022-10-16T10:16:50;3.03;;;1.60;;
18933;SDS011;9599;53.706;10.384;2022-10-16T10:19:20;1.90;;;1.40;;
18933;SDS011;9599;53.706;10.384;2022-10-16T10:21:54;3.50;;;1.50;;
18933;SDS011;9599;53.706;10.384;2022-10-16T10:24:22;4.03;;;1.50;;
18933;SDS011;9599;53.706;10.384;2022-10-16T10:26:52;2.23;;;1.40;;
18933;SDS011;9599;53.706;10.384;2022-10-16T10:29:27;2.43;;;1.27;;
18933;SDS011;9599;53.706;10.384;2022-10-16T10:32:05;2.60;;;1.20;;
18933;SDS011;9599;53.706;10.384;2022-10-16T10:34:46;3.33;;;1.47;;
18933;SDS011;9599;53.706;10.384;2022-10-16T10:37:37;3.70;;;1.40;;
18933;SDS011;9599;53.706;10.384;2022-10-16T10:40:22;5.27;;;1.63;;
18933;SDS011;9599;53.706;10.384;2022-10-16T10:42:59;2.23;;;1.30;;
18933;SDS011;9599;53.706;10.384;2022-10-16T10:45:36;2.73;;;1.30;;
18933;SDS011;9599;53.706;10.384;2022-10-16T10:48:17;2.50;;;1.30;;
18933;SDS011;9599;53.706;10.384;2022-10-16T10:50:52;2.43;;;1.40;;
18933;SDS011;9599;53.706;10.384;2022-10-16T10:53:26;2.53;;;1.50;;
18933;SDS011;9599;53.706;10.384;2022-10-16T10:56:06;3.00;;;1.60;;
18933;SDS011;9599;53.706;10.384;2022-10-16T10:58:46;3.13;;;1.50;;
18933;SDS011;9599;53.706;10.384;2022-10-16T11:01:26;5.40;;;1.20;;
18933;SDS011;9599;53.706;10.384;2022-10-16T11:04:19;3.03;;;1.20;;
18933;SDS011;9599;53.706;10.384;2022-10-16T11:07:02;1.77;;;1.07;;
18933;SDS011;9599;53.706;10.384;2022-10-16T11:09:34;3.17;;;1.20;;
18933;SDS011;9599;53.706;10.384;2022-10-16T11:12:06;3.77;;;1.30;;
18933;SDS011;9599;53.706;10.384;2022-10-16T11:14:39;1.77;;;1.20;;
18933;SDS011;9599;53.706;10.384;2022-10-16T11:17:13;2.73;;;1.30;;
18933;SDS011;9599;53.706;10.384;2022-10-16T11:19:48;2.17;;;1.30;;
18933;SDS011;9599;53.706;10.384;2022-10-16T11:22:19;2.53;;;1.20;;
18933;SDS011;9599;53.706;10.384;2022-10-16T11:24:51;2.03;;;1.13;;
18933;SDS011;9599;53.706;10.384;2022-10-16T11:27:30;4.00;;;1.03;;
18933;SDS011;9599;53.706;10.384;2022-10-16T11:30:04;1.43;;;1.00;;
18933;SDS011;9599;53.706;10.384;2022-10-16T11:32:42;2.53;;;1.20;;
18933;SDS011;9599;53.706;10.384;2022-10-16T11:35:23;3.00;;;1.10;;
18933;SDS011;9599;53.706;10.384;2022-10-16T11:37:56;2.00;;;1.07;;
18933;SDS011;9599;53.706;10.384;2022-10-16T11:40:27;1.43;;;0.90;;
18933;SDS011;9599;53.706;10.384;2022-10-16T11:43:02;2.70;;;1.10;;
18933;SDS011;9599;53.706;10.384;2022-10-16T11:45:38;3.43;;;1.10;;
18933;SDS011;9599;53.706;10.384;2022-10-16T11:48:12;5.53;;;1.30;;
18933;SDS011;9599;53.706;10.384;2022-10-16T11:50:50;5.13;;;1.20;;
18933;SDS011;9599;53.706;10.384;2022-10-16T11:53:22;4.90;;;1.20;;
18933;SDS011;9599;53.706;10.384;2022-10-16T11:55:57;6.63;;;1.00;;
18933;SDS011;9599;53.706;10.384;2022-10-16T11:58:26;5.43;;;1.20;;
18933;SDS011;9599;53.706;10.384;2022-10-16T12:01:01;1.83;;;1.00;;
18933;SDS011;9599;53.706;10.384;2022-10-16T12:03:43;2.83;;;1.03;;
18933;SDS011;9599;53.706;10.384;2022-10-16T12:06:22;2.70;;;0.90;;
18933;SDS011;9599;53.706;10.384;2022-10-16T12:08:57;2.67;;;1.30;;
18933;SDS011;9599;53.706;10.384;2022-10-16T12:11:35;2.17;;;1.00;;
18933;SDS011;9599;53.706;10.384;2022-10-16T12:14:17;3.13;;;1.43;;
18933;SDS011;9599;53.706;10.384;2022-10-16T12:16:52;3.07;;;1.20;;
18933;SDS011;9599;53.706;10.384;2022-10-16T12:19:22;4.53;;;1.60;;
18933;SDS011;9599;53.706;10.384;2022-10-16T12:21:54;3.27;;;1.80;;
18933;SDS011;9599;53.706;10.384;2022-10-16T12:24:30;2.43;;;1.20;;
18933;SDS011;9599;53.706;10.384;2022-10-16T12:27:00;1.93;;;1.20;;
18933;SDS011;9599;53.706;10.384;2022-10-16T12:29:32;3.90;;;1.10;;
18933;SDS011;9599;53.706;10.384;2022-10-16T12:32:03;1.93;;;1.07;;
18933;SDS011;9599;53.706;10.384;2022-10-16T12:34:36;2.93;;;1.20;;
18933;SDS011;9599;53.706;10.384;2022-10-16T12:37:11;2.00;;;1.20;;
18933;SDS011;9599;53.706;10.384;2022-10-16T12:39:42;2.00;;;1.00;;
18933;SDS011;9599;53.706;10.384;2022-10-16T12:42:20;2.67;;;1.17;;
18933;SDS011;9599;53.706;10.384;2022-10-16T12:44:51;2.57;;;1.00;;
18933;SDS011;9599;53.706;10.384;2022-10-16T12:47:20;2.67;;;1.30;;
18933;SDS011;9599;53.706;10.384;2022-10-16T12:49:49;2.60;;;1.00;;
18933;SDS011;9599;53.706;10.384;2022-10-16T12:52:28;2.03;;;1.30;;
18933;SDS011;9599;53.706;10.384;2022-10-16T12:55:04;3.10;;;1.10;;
18933;SDS011;9599;53.706;10.384;2022-10-16T12:57:42;5.03;;;1.27;;
18933;SDS011;9599;53.706;10.384;2022-10-16T13:00:26;1.73;;;1.13;;
18933;SDS011;9599;53.706;10.384;2022-10-16T13:06:08;2.40;;;1.10;;
18933;SDS011;9599;53.706;10.384;2022-10-16T13:08:58;3.10;;;1.37;;
18933;SDS011;9599;53.706;10.384;2022-10-16T13:11:35;5.77;;;1.50;;
18933;SDS011;9599;53.706;10.384;2022-10-16T13:14:32;3.57;;;1.30;;
18933;SDS011;9599;53.706;10.384;2022-10-16T13:17:21;3.90;;;1.37;;
18933;SDS011;9599;53.706;10.384;2022-10-16T13:19:57;3.80;;;1.27;;
18933;SDS011;9599;53.706;10.384;2022-10-16T13:22:31;3.27;;;1.30;;
18933;SDS011;9599;53.706;10.384;2022-10-16T13:25:13;4.13;;;1.20;;
18933;SDS011;9599;53.706;10.384;2022-10-16T13:27:52;2.63;;;1.40;;
18933;SDS011;9599;53.706;10.384;2022-10-16T13:30:23;3.57;;;1.40;;
18933;SDS011;9599;53.706;10.384;2022-10-16T13:32:58;2.87;;;1.20;;
18933;SDS011;9599;53.706;10.384;2022-10-16T13:35:28;2.67;;;1.30;;
18933;SDS011;9599;53.706;10.384;2022-10-16T13:38:04;4.30;;;1.33;;
18933;SDS011;9599;53.706;10.384;2022-10-16T13:40:53;2.73;;;1.23;;
18933;SDS011;9599;53.706;10.384;2022-10-16T13:43:24;3.07;;;1.10;;
18933;SDS011;9599;53.706;10.384;2022-10-16T13:45:55;4.03;;;1.47;;
18933;SDS011;9599;53.706;10.384;2022-10-16T13:48:24;3.67;;;1.13;;
18933;SDS011;9599;53.706;10.384;2022-10-16T13:51:02;4.03;;;1.50;;
18933;SDS011;9599;53.706;10.384;2022-10-16T13:53:33;3.93;;;1.33;;
18933;SDS011;9599;53.706;10.384;2022-10-16T13:56:04;2.67;;;1.23;;
18933;SDS011;9599;53.706;10.384;2022-10-16T13:58:34;2.17;;;1.10;;
18933;SDS011;9599;53.706;10.384;2022-10-16T14:01:03;3.73;;;1.23;;
18933;SDS011;9599;53.706;10.384;2022-10-16T14:03:33;4.03;;;1.40;;
18933;SDS011;9599;53.706;10.384;2022-10-16T14:06:03;1.80;;;1.10;;
18933;SDS011;9599;53.706;10.384;2022-10-16T14:08:41;5.07;;;1.17;;
18933;SDS011;9599;53.706;10.384;2022-10-16T14:11:11;5.43;;;1.40;;
18933;SDS011;9599;53.706;10.384;2022-10-16T14:13:42;2.90;;;1.10;;
18933;SDS011;9599;53.706;10.384;2022-10-16T14:16:16;2.87;;;1.17;;
18933;SDS011;9599;53.706;10.384;2022-10-16T14:18:46;3.40;;;1.47;;
18933;SDS011;9599;53.706;10.384;2022-10-16T14:21:22;2.50;;;1.20;;
18933;SDS011;9599;53.706;10.384;2022-10-16T14:23:50;3.27;;;1.20;;
18933;SDS011;9599;53.706;10.384;2022-10-16T14:26:20;3.37;;;1.23;;
18933;SDS011;9599;53.706;10.384;2022-10-16T14:29:00;3.67;;;1.10;;
18933;SDS011;9599;53.706;10.384;2022-10-16T14:31:32;3.00;;;1.03;;
18933;SDS011;9599;53.706;10.384;2022-10-16T14:34:03;4.03;;;1.23;;
18933;SDS011;9599;53.706;10.384;2022-10-16T14:36:31;3.70;;;1.03;;
18933;SDS011;9599;53.706;10.384;2022-10-16T14:39:02;3.90;;;1.20;;
18933;SDS011;9599;53.706;10.384;2022-10-16T14:41:40;3.33;;;1.10;;
18933;SDS011;9599;53.706;10.384;2022-10-16T14:44:12;2.00;;;1.10;;
18933;SDS011;9599;53.706;10.384;2022-10-16T14:46:41;3.23;;;0.90;;
18933;SDS011;9599;53.706;10.384;2022-10-16T14:49:15;4.87;;;2.00;;
18933;SDS011;9599;53.706;10.384;2022-10-16T14:51:46;2.87;;;1.30;;
18933;SDS011;9599;53.706;10.384;2022-10-16T14:54:15;4.37;;;1.60;;
18933;SDS011;9599;53.706;10.384;2022-10-16T14:56:49;6.30;;;1.37;;
18933;SDS011;9599;53.706;10.384;2022-10-16T14:59:19;2.90;;;1.30;;
18933;SDS011;9599;53.706;10.384;2022-10-16T15:01:52;2.87;;;1.10;;
18933;SDS011;9599;53.706;10.384;2022-10-16T15:04:20;2.77;;;1.27;;
18933;SDS011;9599;53.706;10.384;2022-10-16T15:06:48;7.17;;;1.40;;
18933;SDS011;9599;53.706;10.384;2022-10-16T15:09:16;3.07;;;1.30;;
18933;SDS011;9599;53.706;10.384;2022-10-16T15:11:44;3.53;;;1.30;;
18933;SDS011;9599;53.706;10.384;2022-10-16T15:14:14;2.30;;;1.27;;
18933;SDS011;9599;53.706;10.384;2022-10-16T15:16:41;3.17;;;1.13;;
18933;SDS011;9599;53.706;10.384;2022-10-16T15:19:09;1.90;;;1.00;;
18933;SDS011;9599;53.706;10.384;2022-10-16T15:21:37;3.47;;;1.20;;